Latest Coastal Weather Observations for Mardie

IDW60701

Issued at 1:32 am WST Saturday 20 December 2014 (issued every 10 minutes, with the page automatically refreshed every 10 minutes)

About coastal observations | Map of coastal stations | Coastal observations for WA | Marine services | Other Formats
Station Details ID: 005008 Name: MARDIE Lat: -21.19 Lon: 115.98 Height: 11.0 m
Data from the previous 72 hours. | See also: Recent months at Mardie
Date/Time
WST
Temp

°C
Wind Pressure Rain
since 9am
mm
Weather Cloud Vis
km
Sea
Height
m
Swell
Dir
 
Speed
knots
Gust
knots
hPa Trend Height
m
Period
s
Dir
20/01:30am 24.4 SW 2 3 1009.5 - 0.0 - - - - - - -
20/01:00am 24.6 SW 2 2 1009.7 - 0.0 - - - - - - -
20/12:30am 24.9 WSW 4 5 1010.2 - 0.0 - - - - - - -
20/12:00am 25.1 W 3 4 1010.7 - 0.0 - - - - - - -
 
Date/Time
WST
Temp

°C
Wind Pressure Rain
since 9am
mm
Weather Cloud Vis
km
Sea
Height
m
Swell
Dir
 
Speed
knots
Gust
knots
hPa Trend Height
m
Period
s
Dir
19/11:30pm 25.4 W 1 2 1011.2 - 0.0 - - - - - - -
19/11:00pm 25.3 CALM 0 0 1011.3 - 0.0 - - - - - - -
19/10:30pm 25.8 W 2 3 1011.5 - 0.0 - - - - - - -
19/10:00pm 26.1 W 3 4 1011.2 - 0.0 - - - - - - -
19/09:30pm 26.2 W 4 6 1011.1 - 0.0 - - - - - - -
19/09:00pm 26.4 W 6 9 1010.7 - 0.0 - - - - - - -
19/08:30pm 26.6 W 8 10 1010.7 - 0.0 - - - - - - -
19/08:00pm 26.9 WNW 6 11 1010.6 - 0.0 - - - - - - -
19/07:30pm 27.1 WNW 8 11 1010.3 - 0.0 - - - - - - -
19/07:00pm 27.5 NW 10 13 1010.0 - 0.0 - - - - - - -
19/06:30pm 28.2 NW 11 15 1009.6 - 0.0 - - - - - - -
19/06:00pm 29.1 NW 12 16 1009.1 - 0.0 - - - - - - -
19/05:30pm 30.3 NW 13 18 1008.3 - 0.0 - - - - - - -
19/05:00pm 30.1 NW 13 19 1008.2 - 0.0 - - - - - - -
19/04:30pm 30.7 NW 13 18 1008.0 - 0.0 - - - - - - -
19/04:00pm 32.2 NW 14 19 1007.9 - 0.0 - - - - - - -
19/03:30pm 31.5 NW 13 19 1007.9 - 0.0 - - - - - - -
19/03:00pm 32.2 NW 13 18 1008.2 - 0.0 - - - - - - -
19/02:30pm 32.1 NW 13 18 1008.2 - 0.0 - - - - - - -
19/02:00pm 34.1 NW 11 15 1008.3 - 0.0 - - - - - - -
19/01:30pm 34.2 NW 11 15 1008.2 - 0.0 - - - - - - -
19/01:00pm 34.2 NW 11 15 1008.6 - 0.0 - - - - - - -
19/12:30pm 32.9 NW 10 13 1008.9 - 0.0 - - - - - - -
19/12:00pm 32.4 WNW 10 16 1009.0 - 0.0 - - - - - - -
19/11:30am 31.5 NW 10 13 1009.3 - 0.0 - - - - - - -
19/11:00am 31.8 WNW 10 15 1009.4 - 0.0 - - - - - - -
19/10:30am 31.2 NW 7 11 1009.8 - 0.0 - - - - - - -
19/10:00am 31.1 WNW 7 12 1009.9 - 0.0 - - - - - - -
19/09:30am 30.4 NW 7 10 1010.1 - 0.0 - - - - - - -
19/09:00am 29.8 WNW 6 10 1010.1 - 0.0 - - - - - - -
19/08:30am 29.4 WNW 7 10 1010.0 - 0.0 - - - - - - -
19/08:00am 28.6 W 7 11 1009.8 - 0.0 - - - - - - -
19/07:30am 28.5 W 7 9 1009.5 - 0.0 - - - - - - -
19/07:00am 27.5 WSW 4 6 1009.2 - 0.0 - - - - - - -
19/06:30am 25.7 CALM 0 1 1009.0 - 0.0 - - - - - - -
19/06:00am 24.1 CALM 0 1 1008.6 - 0.0 - - - - - - -
19/05:30am 24.0 W 3 3 1008.2 - 0.0 - - - - - - -
19/05:00am 24.0 W 1 2 1007.9 - 0.0 - - - - - - -
19/04:30am 24.4 W 1 2 1007.7 - 0.0 - - - - - - -
19/04:00am 24.6 W 3 3 1007.8 - 0.0 - - - - - - -
19/03:30am 25.0 W 4 5 1007.7 - 0.0 - - - - - - -
19/03:00am 25.7 W 5 7 1007.5 - 0.0 - - - - - - -
19/02:30am 25.0 WNW 4 5 1007.5 - 0.0 - - - - - - -
19/02:00am 24.5 W 4 5 1007.4 - 0.0 - - - - - - -
19/01:30am 25.3 W 3 4 1007.4 - 0.0 - - - - - - -
19/01:00am 25.6 W 1 3 1007.8 - 0.0 - - - - - - -
19/12:30am 25.8 W 2 2 1007.9 - 0.0 - - - - - - -
19/12:00am 26.3 W 3 3 1007.9 - 0.0 - - - - - - -
 
Date/Time
WST
Temp

°C
Wind Pressure Rain
since 9am
mm
Weather Cloud Vis
km
Sea
Height
m
Swell
Dir
 
Speed
knots
Gust
knots
hPa Trend Height
m
Period
s
Dir
18/11:30pm 26.6 W 4 6 1007.9 - 0.0 - - - - - - -
18/11:00pm 26.9 W 4 5 1007.9 - 0.0 - - - - - - -
18/10:30pm 27.1 W 5 8 1007.7 - 0.0 - - - - - - -
18/10:00pm 27.2 W 5 9 1007.5 - 0.0 - - - - - - -
18/09:30pm 27.2 W 6 10 1007.2 - 0.0 - - - - - - -
18/09:00pm 27.2 W 10 14 1006.9 - 0.0 - - - - - - -
18/08:30pm 27.3 W 11 15 1006.7 - 0.0 - - - - - - -
18/08:00pm 27.6 W 11 16 1006.5 - 0.0 - - - - - - -
18/07:30pm 27.9 W 11 17 1006.2 - 0.0 - - - - - - -
18/07:00pm 28.1 WNW 12 17 1005.9 - 0.0 - - - - - - -
18/06:30pm 28.5 WNW 12 17 1005.5 - 0.0 - - - - - - -
18/06:00pm 29.3 W 15 19 1005.1 - 0.0 - - - - - - -
18/05:30pm 30.8 W 14 19 1004.9 - 0.0 - - - - - - -
18/05:00pm 31.4 WNW 16 21 1004.6 - 0.0 - - - - - - -
18/04:30pm 32.6 WNW 16 21 1004.5 - 0.0 - - - - - - -
18/04:00pm 32.6 WNW 16 20 1004.5 - 0.0 - - - - - - -
18/03:30pm 33.1 WNW 15 19 1004.8 - 0.0 - - - - - - -
18/03:00pm 34.2 WNW 15 19 1005.0 - 0.0 - - - - - - -
18/02:30pm 34.0 WNW 15 19 1005.1 - 0.0 - - - - - - -
18/02:00pm 34.2 WNW 16 19 1005.4 - 0.0 - - - - - - -
18/01:30pm 34.1 WNW 15 19 1005.5 - 0.0 - - - - - - -
18/01:00pm 34.1 WNW 13 17 1005.7 - 0.0 - - - - - - -
18/12:30pm 33.8 WNW 12 16 1006.0 - 0.0 - - - - - - -
18/12:00pm 33.9 WNW 12 16 1006.4 - 0.0 - - - - - - -
18/11:30am 33.2 WNW 10 13 1006.6 - 0.0 - - - - - - -
18/11:00am 32.8 WNW 10 14 1006.7 - 0.0 - - - - - - -
18/10:30am 32.9 WNW 10 15 1006.8 - 0.0 - - - - - - -
18/10:00am 33.1 W 7 10 1007.0 - 0.0 - - - - - - -
18/09:30am 33.0 W 6 12 1007.1 - 0.0 - - - - - - -
18/09:00am 31.8 WSW 7 10 1007.2 - 0.0 - - - - - - -
18/08:30am 30.2 WSW 7 11 1007.2 - 0.0 - - - - - - -
18/08:00am 29.3 WSW 7 10 1007.1 - 0.0 - - - - - - -
18/07:30am 28.1 WSW 10 14 1006.7 - 0.0 - - - - - - -
18/07:00am 27.6 W 11 13 1006.6 - 0.0 - - - - - - -
18/06:30am 26.6 WSW 8 11 1006.4 - 0.0 - - - - - - -
18/06:00am 25.4 W 6 8 1006.1 - 0.0 - - - - - - -
18/05:30am 24.8 W 6 7 1005.7 - 0.0 - - - - - - -
18/05:00am 25.3 W 6 8 1005.5 - 0.0 - - - - - - -
18/04:30am 25.8 W 8 11 1005.4 - 0.0 - - - - - - -
18/04:00am 25.7 W 8 10 1005.3 - 0.0 - - - - - - -
18/03:30am 25.3 WNW 5 7 1005.3 - 0.0 - - - - - - -
18/03:00am 25.7 W 5 7 1005.2 - 0.0 - - - - - - -
18/02:30am 26.0 W 5 7 1005.0 - 0.0 - - - - - - -
18/02:00am 26.1 W 6 7 1005.0 - 0.0 - - - - - - -
18/01:30am 26.4 WNW 5 8 1005.3 - 0.0 - - - - - - -
18/01:00am 26.7 W 6 9 1005.4 - 0.0 - - - - - - -
18/12:30am 26.9 W 6 9 1005.5 - 0.0 - - - - - - -
18/12:00am 27.0 W 7 11 1005.5 - 0.0 - - - - - - -
 
Date/Time
WST
Temp

°C
Wind Pressure Rain
since 9am
mm
Weather Cloud Vis
km
Sea
Height
m
Swell
Dir
 
Speed
knots
Gust
knots
hPa Trend Height
m
Period
s
Dir
17/11:30pm 27.2 W 8 12 1005.6 - 0.0 - - - - - - -
17/11:00pm 27.5 W 9 15 1005.6 - 0.0 - - - - - - -
17/10:30pm 27.8 W 10 14 1005.6 - 0.0 - - - - - - -
17/10:00pm 28.1 W 9 13 1005.5 - 0.0 - - - - - - -
17/09:30pm 28.2 W 12 16 1005.1 - 0.0 - - - - - - -
17/09:00pm 28.2 W 12 17 1004.6 - 0.0 - - - - - - -
17/08:30pm 28.3 W 13 17 1004.3 - 0.0 - - - - - - -
17/08:00pm 28.6 W 12 17 1004.1 - 0.0 - - - - - - -
17/07:30pm 28.8 W 12 19 1003.6 - 0.0 - - - - - - -
17/07:00pm 29.2 W 13 19 1003.4 - 0.0 - - - - - - -
17/06:30pm 29.9 W 13 19 1003.2 - 0.0 - - - - - - -
17/06:00pm - WNW 15 21 1003.0 - 0.0 - - - - - - -
17/05:30pm - WNW 16 23 1002.7 - 0.0 - - - - - - -
17/05:00pm - WNW 19 23 1002.5 - 0.0 - - - - - - -
17/04:30pm 32.6 WNW 18 23 1002.0 - 0.0 - - - - - - -
17/04:00pm 33.5 WNW 17 23 1002.0 - 0.0 - - - - - - -
17/03:30pm 33.6 WNW 17 22 1002.1 - 0.0 - - - - - - -
17/03:00pm 34.2 WNW 18 23 1002.3 - 0.0 - - - - - - -
17/02:30pm 34.1 WNW 17 23 1002.7 - 0.0 - - - - - - -
17/02:00pm 34.3 WNW 17 23 1003.0 - 0.0 - - - - - - -
17/01:30pm 33.9 WNW 16 22 1003.2 - 0.0 - - - - - - -
17/01:00pm 33.7 WNW 18 22 1003.4 - 0.0 - - - - - - -
17/12:30pm 34.0 WNW 15 20 1003.8 - 0.0 - - - - - - -
17/12:00pm 33.3 WNW 14 19 1004.0 - 0.0 - - - - - - -
17/11:30am 32.9 WNW 14 20 1004.4 - 0.0 - - - - - - -
17/11:00am 32.9 WNW 12 17 1004.8 - 0.0 - - - - - - -
17/10:30am 32.8 WNW 11 15 1005.0 - 0.0 - - - - - - -
17/10:00am 32.8 W 8 14 1005.2 - 0.0 - - - - - - -
17/09:30am 31.9 SW 6 9 1005.6 - 0.0 - - - - - - -
17/09:00am 30.9 WSW 7 11 1005.6 - 0.0 - - - - - - -
17/08:30am 29.8 WSW 8 11 1005.7 - 0.0 - - - - - - -
17/08:00am 28.6 WSW 9 13 1005.7 - 0.0 - - - - - - -
17/07:30am 27.7 WSW 10 13 1005.7 - 0.0 - - - - - - -
17/07:00am 27.0 WSW 10 13 1005.6 - 0.0 - - - - - - -
17/06:30am 26.3 WSW 7 9 1005.4 - 0.0 - - - - - - -
17/06:00am 25.5 W 6 9 1005.0 - 0.0 - - - - - - -
17/05:30am 25.0 W 7 10 1004.7 - 0.0 - - - - - - -
17/05:00am 25.0 W 6 10 1004.3 - 0.0 - - - - - - -
17/04:30am 25.2 W 8 9 1004.3 - 0.0 - - - - - - -
17/04:00am 25.2 WNW 7 10 1004.6 - 0.0 - - - - - - -
17/03:30am 25.1 WNW 6 7 1004.6 - 0.0 - - - - - - -
17/03:00am 25.1 WNW 4 7 1004.6 - 0.0 - - - - - - -
17/02:30am 25.4 WNW 5 6 1004.7 - 0.0 - - - - - - -
17/02:00am 25.5 WNW 5 8 1004.7 - 0.0 - - - - - - -

Other Formats:

Comma delimited format used in spreadsheet applications
http://www.bom.gov.au/fwo/IDW60701/IDW60701.94306.axf

JavaScript Object Notation format (JSON) in row-major order
http://www.bom.gov.au/fwo/IDW60701/IDW60701.94306.json